Bunola, PA (15020)

20:07 EDT le 21 septembre 2014 (GMT -0400)
Sugar Run Road | Change Station
CLOSE
Current Station
Stations météorologiques personnelles
Location: Venetia, PA
Altitude: 1096 ft
Stations météo à proximité

Alt. 1096 ft 40.23 °N, 80.04 °W | Updated 2 minutes ago

Ciel dégagé
Ciel dégagé
66.3 ° F
Paraît 66.3 ° F
N
3.0
Vent Variable Vent de Ouest
Gusts 7.0 mph

Aujourd'hui
Haut(e) -- | Bas -- ° F
--% Risque de précip.
Hier
Haut(e) -- | Bas -- ° F
Precip. -- pouce
7:06 AM 7:18 PM
Lune descendante, 5% visible
Pression 29.76 pouce
Visibilité 10.0 Miles terrestres
Nuages Peu 7000 ft
Point de rosée 46 ° F
Humidité 48%
Précipitations 0.65 pouce
Profondeur de la couche neigeuse Non disponible.
UV 0 sur 12
Pollen 1.50 sur 12
Ozone Bon
PM2.5 Bon
Flu Activity Non disponible.
METAR KAGC 212353Z AUTO 31011G23KT 10SM FEW070 20/07 A2976 RMK AO2 SLP077 60006 T02000067 10250 20200 53035 TSNO

More Conditions Fewer Conditions

Pression 29.76 pouce
Visibilité 10.0 Miles terrestres
Nuages Peu 7000 ft
Point de rosée 46 ° F
Humidité 48%
Précipitations 0.65 pouce
Profondeur de la couche neigeuse Non disponible.
UV 0 sur 12
Pollen 1.50 sur 12
Ozone Bon
PM2.5 Bon
Flu Activity Non disponible.
METAR KAGC 212353Z AUTO 31011G23KT 10SM FEW070 20/07 A2976 RMK AO2 SLP077 60006 T02000067 10250 20200 53035 TSNO

More Conditions Fewer Conditions

10-Day Weather Forecast

Almanac

Astronomie

Sep. 21, 2014 Lever Coucher
Temps réel 07:06 EDT 19:18 EDT
Crépuscule civil 06:39 EDT 19:45 EDT
Crépuscule nautique 06:07 EDT 20:17 EDT
Crépuscule astronomique 05:34 EDT 20:49 EDT
Lune 04:38 EDT (9/21) 17:54 EDT (9/21)
Durée de lumière visible 13h 06m
Longueur du jour
12h 12m
Tomorrow will be 2m 38s shorter.
Lune descendante, 5% of the Moon is Illuminated
Aujourd'hui
Lune descendante
Sep 24
Nouveau
Oct 1
Premier quartier
Oct 8
Pleine lune
Oct 15
Dernier quartier

Extrêmes aujourd'hui

State Highs State Lows

Community

WunderPhotos

Upload Photos

1,755,309 Photos téléchargées !

WunderBlogs® & News

Nearby

Qualité de l'air

  Qualité de l'air Indice de la qualité de l'air Polluant
Hier Moyen
PM2.5
Hier Bon
OZONE
Actuel Bon
PM2.5
Actuel Bon
OZONE
dimanche Moyen
PM2.5
lundi Bon
PM2.5
mardi Bon
PM2.5

Épaisseur de neige

Station Depth Altitude
Pas de nouvelles chutes de neige

Activité sismique

Ville Distance Mag. Time & Date
No recent earthquake activity has been reported nearby.
Minimum magnitude displayed is 2.5.

Températures des eaux côtières

Lieu Température
Aucun rapport de station

Stations météo à proximité